Time;durP1;ratioP1;P1;durP2;ratioP2;P2;SDS_P1;SDS_P2;PMS_P1;PMS_P2;Temp;Humidity;BMP_temperature;BMP_pressure;BME280_temperature;BME280_humidity;BME280_pressure;Samples;Min_cycle;Max_cycle;Signal;HPM_P1;HPM_P2
2023/05/01 00:01:34;;;;;;;4.88;3.25;;;;;;;;;;5094299;28;20384;-74
2023/05/01 00:04:00;;;;;;;3.47;3.17;;;;;;;;;;5109972;28;20028;-74
2023/05/01 00:06:26;;;;;;;5.20;3.30;;;;;;;;;;5094233;28;20033;-74
2023/05/01 00:08:52;;;;;;;9.52;3.10;;;;;;;;;;5094249;28;20483;-74
2023/05/01 00:11:19;;;;;;;3.92;3.53;;;;;;;;;;5093980;28;20412;-74
2023/05/01 00:13:45;;;;;;;4.00;3.03;;;;;;;;;;5094095;28;20031;-74
2023/05/01 00:16:11;;;;;;;5.63;3.30;;;;;;;;;;5109968;28;20016;-74
2023/05/01 00:18:38;;;;;;;3.50;3.17;;;;;;;;;;5093994;28;20028;-73
2023/05/01 00:21:04;;;;;;;4.05;3.33;;;;;;;;;;5109363;28;20051;-74
2023/05/01 00:23:30;;;;;;;4.28;3.13;;;;;;;;;;5110027;28;20040;-74
2023/05/01 00:25:56;;;;;;;3.80;3.38;;;;;;;;;;5094438;28;20111;-73
2023/05/01 00:28:22;;;;;;;3.80;2.95;;;;;;;;;;5093758;28;20515;-73
2023/05/01 00:30:48;;;;;;;8.52;3.35;;;;;;;;;;5093466;28;20449;-74
2023/05/01 00:33:14;;;;;;;3.58;2.92;;;;;;;;;;5109798;28;20120;-73
2023/05/01 00:35:43;;;;;;;5.15;3.33;;;;;;;;;;5093855;28;20285;-74
2023/05/01 00:38:09;;;;;;;3.72;3.33;;;;;;;;;;5094198;28;20027;-74
2023/05/01 00:40:41;;;;;;;6.72;3.38;;;;;;;;;;5093834;28;20028;-74
2023/05/01 00:43:07;;;;;;;3.22;2.35;;;;;;;;;;5093632;28;20369;-74
2023/05/01 00:45:33;;;;;;;7.65;4.43;;;;;;;;;;5093054;28;20024;-75
2023/05/01 00:47:59;;;;;;;3.35;3.08;;;;;;;;;;5093684;28;20039;-74
2023/05/01 00:50:25;;;;;;;4.70;3.55;;;;;;;;;;5093761;28;20426;-74
2023/05/01 00:52:51;;;;;;;4.18;3.65;;;;;;;;;;5093461;28;20028;-74
2023/05/01 00:55:17;;;;;;;3.38;3.08;;;;;;;;;;5093802;28;20105;-74
2023/05/01 00:57:43;;;;;;;3.75;3.42;;;;;;;;;;5093334;28;20036;-74
2023/05/01 01:00:11;;;;;;;6.47;3.92;;;;;;;;;;5108794;28;20031;-74
2023/05/01 01:02:37;;;;;;;4.93;4.07;;;;;;;;;;5093283;28;20115;-74
2023/05/01 01:05:04;;;;;;;4.47;3.88;;;;;;;;;;5092973;28;20071;-74
2023/05/01 01:07:42;;;;;;;8.35;3.85;;;;;;;;;;5091448;28;20123;-74
2023/05/01 01:10:17;;;;;;;4.45;3.72;;;;;;;;;;5091688;28;20035;-74
2023/05/01 01:12:58;;;;;;;5.90;3.95;;;;;;;;;;5093421;28;20028;-74
2023/05/01 01:15:29;;;;;;;6.82;4.22;;;;;;;;;;5109593;28;20020;-74
2023/05/01 01:18:04;;;;;;;4.43;4.03;;;;;;;;;;5094290;28;20020;-75
2023/05/01 01:20:32;;;;;;;4.50;4.00;;;;;;;;;;5108849;28;20047;-74
2023/05/01 01:23:01;;;;;;;5.90;4.47;;;;;;;;;;5092668;28;20628;-75
2023/05/01 01:25:30;;;;;;;5.65;4.28;;;;;;;;;;5092946;28;20058;-75
2023/05/01 01:28:15;;;;;;;5.85;4.32;;;;;;;;;;5093365;28;20028;-76
2023/05/01 01:30:47;;;;;;;4.22;3.83;;;;;;;;;;5108707;28;20180;-75
2023/05/01 01:33:22;;;;;;;7.45;3.92;;;;;;;;;;5092382;28;20035;-75
2023/05/01 01:36:01;;;;;;;5.18;4.38;;;;;;;;;;5092624;28;20028;-76
2023/05/01 01:38:37;;;;;;;8.15;4.63;;;;;;;;;;5092426;28;20020;-76
2023/05/01 01:41:11;;;;;;;5.35;3.65;;;;;;;;;;5092665;28;20112;-76
2023/05/01 01:43:39;;;;;;;5.15;3.92;;;;;;;;;;5093039;28;20032;-76
2023/05/01 01:46:06;;;;;;;6.28;4.35;;;;;;;;;;5108714;28;20118;-75
2023/05/01 01:48:34;;;;;;;6.07;4.43;;;;;;;;;;5092866;28;20039;-76
2023/05/01 01:51:01;;;;;;;6.60;5.13;;;;;;;;;;5092576;28;20024;-74
2023/05/01 01:53:29;;;;;;;6.22;4.10;;;;;;;;;;5107995;28;20052;-75
2023/05/01 01:55:57;;;;;;;5.93;5.13;;;;;;;;;;5092996;28;20380;-75
2023/05/01 01:58:25;;;;;;;5.10;4.47;;;;;;;;;;5092272;28;20028;-74
2023/05/01 02:00:52;;;;;;;8.48;4.53;;;;;;;;;;5092382;28;20504;-75
2023/05/01 02:03:19;;;;;;;5.97;4.85;;;;;;;;;;5093270;28;20020;-73
2023/05/01 02:05:46;;;;;;;10.50;5.35;;;;;;;;;;5092846;28;20063;-74
2023/05/01 02:08:13;;;;;;;10.98;5.78;;;;;;;;;;5108178;28;20047;-74
2023/05/01 02:10:40;;;;;;;10.90;5.03;;;;;;;;;;5092355;28;20083;-74
2023/05/01 02:13:06;;;;;;;8.13;4.95;;;;;;;;;;5108083;28;20126;-74
2023/05/01 02:15:33;;;;;;;5.72;4.90;;;;;;;;;;5091630;28;20243;-74
2023/05/01 02:18:01;;;;;;;9.80;4.88;;;;;;;;;;5107884;28;20028;-74
2023/05/01 02:20:27;;;;;;;7.00;5.15;;;;;;;;;;5091853;28;20032;-73
2023/05/01 02:22:54;;;;;;;7.25;5.32;;;;;;;;;;5107836;28;20035;-73
2023/05/01 02:25:21;;;;;;;7.63;5.22;;;;;;;;;;5091861;28;20287;-73
2023/05/01 02:27:48;;;;;;;5.55;4.68;;;;;;;;;;5091795;28;20031;-74
2023/05/01 02:30:14;;;;;;;11.30;6.03;;;;;;;;;;5091621;28;20028;-73
2023/05/01 02:32:40;;;;;;;9.88;5.78;;;;;;;;;;5091962;28;20032;-72
2023/05/01 02:35:06;;;;;;;7.60;5.32;;;;;;;;;;5092106;28;20020;-73
2023/05/01 02:37:32;;;;;;;9.95;5.90;;;;;;;;;;5106975;28;20024;-73
2023/05/01 02:39:59;;;;;;;13.38;6.68;;;;;;;;;;5095473;28;20027;-74
2023/05/01 02:42:26;;;;;;;8.38;6.05;;;;;;;;;;5095566;28;20047;-74
2023/05/01 02:44:54;;;;;;;6.00;5.00;;;;;;;;;;5092706;28;20020;-74
2023/05/01 02:47:22;;;;;;;10.13;5.15;;;;;;;;;;5092184;28;20036;-75
2023/05/01 02:49:48;;;;;;;8.27;6.05;;;;;;;;;;5091664;28;20024;-74
2023/05/01 02:52:18;;;;;;;8.07;6.00;;;;;;;;;;5091387;28;20028;-75
2023/05/01 02:54:45;;;;;;;9.85;6.13;;;;;;;;;;5090990;28;20047;-73
2023/05/01 02:57:11;;;;;;;8.50;5.80;;;;;;;;;;5090950;28;20384;-73
2023/05/01 02:59:39;;;;;;;7.50;6.05;;;;;;;;;;5092607;28;20046;-73
2023/05/01 03:02:05;;;;;;;8.48;6.43;;;;;;;;;;5108294;28;20024;-73
2023/05/01 03:04:31;;;;;;;7.72;5.95;;;;;;;;;;5091582;28;20429;-73
2023/05/01 03:06:57;;;;;;;8.10;6.60;;;;;;;;;;5092874;28;20028;-73
2023/05/01 03:09:23;;;;;;;10.93;5.80;;;;;;;;;;5092680;28;20031;-74
2023/05/01 03:11:49;;;;;;;9.05;5.80;;;;;;;;;;5091352;28;20530;-73
2023/05/01 03:14:15;;;;;;;9.05;6.53;;;;;;;;;;5091707;28;20523;-73
2023/05/01 03:16:41;;;;;;;10.85;6.25;;;;;;;;;;5093141;28;20476;-74
2023/05/01 03:19:07;;;;;;;12.70;7.43;;;;;;;;;;5093323;28;20027;-74
2023/05/01 03:21:33;;;;;;;9.85;7.28;;;;;;;;;;5106346;28;20139;-74
2023/05/01 03:23:59;;;;;;;7.78;5.78;;;;;;;;;;5090767;28;20020;-74
2023/05/01 03:26:26;;;;;;;8.07;5.15;;;;;;;;;;5090652;28;20039;-74
2023/05/01 03:28:52;;;;;;;7.85;5.13;;;;;;;;;;5090676;28;20387;-74
2023/05/01 03:31:18;;;;;;;8.40;5.55;;;;;;;;;;5090185;28;20221;-74
2023/05/01 03:33:44;;;;;;;7.75;6.13;;;;;;;;;;5090513;28;20035;-74
2023/05/01 03:36:10;;;;;;;7.63;5.18;;;;;;;;;;5090535;28;20353;-74
2023/05/01 03:38:36;;;;;;;10.82;5.72;;;;;;;;;;5090877;28;20218;-73
2023/05/01 03:41:04;;;;;;;7.68;5.25;;;;;;;;;;5091025;28;20231;-74
2023/05/01 03:43:30;;;;;;;7.75;5.70;;;;;;;;;;5090943;28;20039;-74
2023/05/01 03:45:56;;;;;;;7.65;5.32;;;;;;;;;;5106091;28;20028;-74
2023/05/01 03:48:23;;;;;;;7.57;5.55;;;;;;;;;;5090444;28;20043;-74
2023/05/01 03:50:49;;;;;;;8.88;5.95;;;;;;;;;;5090538;28;20027;-74
2023/05/01 03:53:16;;;;;;;9.73;6.50;;;;;;;;;;5090366;28;20450;-74
2023/05/01 03:55:42;;;;;;;14.13;6.18;;;;;;;;;;5090479;28;20373;-74
2023/05/01 03:58:09;;;;;;;10.23;6.38;;;;;;;;;;5106481;28;20089;-73
2023/05/01 04:00:36;;;;;;;12.82;6.53;;;;;;;;;;5106182;28;20023;-74
2023/05/01 04:03:02;;;;;;;11.50;6.70;;;;;;;;;;5106057;28;20487;-73
2023/05/01 04:05:29;;;;;;;9.25;6.13;;;;;;;;;;5090721;28;20461;-73
2023/05/01 04:07:55;;;;;;;11.18;6.47;;;;;;;;;;5105634;28;20032;-73
2023/05/01 04:10:21;;;;;;;6.43;4.97;;;;;;;;;;5090459;28;20642;-73
2023/05/01 04:12:47;;;;;;;8.43;5.20;;;;;;;;;;5090313;28;20262;-74
2023/05/01 04:15:13;;;;;;;9.85;5.93;;;;;;;;;;5089656;28;20642;-74
2023/05/01 04:17:39;;;;;;;9.43;5.40;;;;;;;;;;5106200;28;20206;-74
2023/05/01 04:20:05;;;;;;;8.43;5.43;;;;;;;;;;5089973;28;20035;-74
2023/05/01 04:22:32;;;;;;;10.90;6.50;;;;;;;;;;5089902;28;20512;-74
2023/05/01 04:24:58;;;;;;;8.13;5.97;;;;;;;;;;5089848;28;20059;-74
2023/05/01 04:27:24;;;;;;;8.35;5.55;;;;;;;;;;5089684;28;20063;-74
2023/05/01 04:29:51;;;;;;;8.23;5.78;;;;;;;;;;5105381;28;20016;-74
2023/05/01 04:32:17;;;;;;;8.45;5.75;;;;;;;;;;5105734;28;20024;-74
2023/05/01 04:34:43;;;;;;;8.55;5.22;;;;;;;;;;5090422;28;20035;-74
2023/05/01 04:37:09;;;;;;;7.75;4.95;;;;;;;;;;5090150;28;20032;-74
2023/05/01 04:39:36;;;;;;;8.35;5.85;;;;;;;;;;5089799;28;20020;-74
2023/05/01 04:42:02;;;;;;;14.10;5.32;;;;;;;;;;5089799;28;20027;-74
2023/05/01 04:44:29;;;;;;;8.15;5.65;;;;;;;;;;5107828;28;20020;-74
2023/05/01 04:46:54;;;;;;;5.82;4.72;;;;;;;;;;5093863;28;20036;-74
2023/05/01 04:49:23;;;;;;;9.88;5.63;;;;;;;;;;5109426;28;20024;-74
2023/05/01 04:51:49;;;;;;;6.88;5.57;;;;;;;;;;5110044;28;20043;-74
2023/05/01 04:54:15;;;;;;;7.47;5.80;;;;;;;;;;5093994;28;20016;-74
2023/05/01 04:56:41;;;;;;;6.88;5.60;;;;;;;;;;5093685;28;20032;-74
2023/05/01 04:59:08;;;;;;;6.28;5.65;;;;;;;;;;5092881;28;20090;-74
2023/05/01 05:01:34;;;;;;;10.30;5.45;;;;;;;;;;5093198;28;20103;-74
2023/05/01 05:04:00;;;;;;;8.00;5.70;;;;;;;;;;5093236;28;20032;-74
2023/05/01 05:06:26;;;;;;;8.13;6.05;;;;;;;;;;5108782;28;20077;-74
2023/05/01 05:08:52;;;;;;;9.95;5.93;;;;;;;;;;5108676;28;20491;-74
2023/05/01 05:11:18;;;;;;;6.65;5.57;;;;;;;;;;5093152;28;20353;-74
2023/05/01 05:13:44;;;;;;;6.35;4.60;;;;;;;;;;5092577;28;20042;-74
2023/05/01 05:16:11;;;;;;;7.30;5.35;;;;;;;;;;5093023;28;20098;-74
2023/05/01 05:18:37;;;;;;;7.57;5.25;;;;;;;;;;5093039;28;20111;-74
2023/05/01 05:21:07;;;;;;;10.25;7.22;;;;;;;;;;5093265;28;20076;-74
2023/05/01 05:23:33;;;;;;;9.32;6.22;;;;;;;;;;5094160;28;20027;-74
2023/05/01 05:26:03;;;;;;;7.50;6.07;;;;;;;;;;5093560;28;20515;-74
2023/05/01 05:28:29;;;;;;;;;;;;;;;;;;5108439;28;20039;-74
2023/05/01 05:30:55;;;;;;;6.82;5.20;;;;;;;;;;5093971;28;19904;-74
2023/05/01 05:33:24;;;;;;;10.63;6.05;;;;;;;;;;5093653;28;20103;-74
2023/05/01 05:35:51;;;;;;;8.15;5.40;;;;;;;;;;5098330;28;20024;-74
2023/05/01 05:38:17;;;;;;;8.23;6.75;;;;;;;;;;5098920;28;20020;-74
2023/05/01 05:40:43;;;;;;;11.13;6.07;;;;;;;;;;5096605;28;20395;-74
2023/05/01 05:43:09;;;;;;;7.47;5.20;;;;;;;;;;5096202;28;20461;-74
2023/05/01 05:45:36;;;;;;;8.68;5.95;;;;;;;;;;5093259;28;20024;-74
2023/05/01 05:48:02;;;;;;;7.30;5.00;;;;;;;;;;5076487;28;20036;-74
2023/05/01 05:50:28;;;;;;;7.25;4.95;;;;;;;;;;5075403;28;20016;-74
2023/05/01 05:52:55;;;;;;;6.68;5.20;;;;;;;;;;5075673;28;20027;-74
2023/05/01 05:55:21;;;;;;;7.90;5.18;;;;;;;;;;5074997;28;20059;-73
2023/05/01 05:57:47;;;;;;;6.22;4.93;;;;;;;;;;5076439;28;20029;-73
2023/05/01 06:00:13;;;;;;;8.68;5.47;;;;;;;;;;5074932;28;20024;-73
2023/05/01 06:02:39;;;;;;;8.23;5.53;;;;;;;;;;5074653;28;20493;-74
2023/05/01 06:05:05;;;;;;;6.78;4.53;;;;;;;;;;5072723;28;20050;-74
2023/05/01 06:07:31;;;;;;;6.38;5.10;;;;;;;;;;5082778;28;20063;-74
2023/05/01 06:10:04;;;;;;;8.48;5.75;;;;;;;;;;5086232;28;20516;-73
2023/05/01 06:12:30;;;;;;;10.13;6.72;;;;;;;;;;5091722;28;20076;-74
2023/05/01 06:14:57;;;;;;;8.70;6.22;;;;;;;;;;5092213;28;20028;-74
2023/05/01 06:17:26;;;;;;;7.50;5.68;;;;;;;;;;5093541;28;20020;-74
2023/05/01 06:19:52;;;;;;;7.35;5.68;;;;;;;;;;5087390;28;20100;-74
2023/05/01 06:22:23;;;;;;;7.88;5.85;;;;;;;;;;5086149;28;20052;-74
2023/05/01 06:24:49;;;;;;;8.38;5.45;;;;;;;;;;5091609;28;20028;-74
2023/05/01 06:27:15;;;;;;;9.63;6.53;;;;;;;;;;5087256;28;20044;-74
2023/05/01 06:29:41;;;;;;;11.95;8.05;;;;;;;;;;5086779;28;20498;-74
2023/05/01 06:32:07;;;;;;;10.82;7.75;;;;;;;;;;5087159;28;20036;-73
2023/05/01 06:34:33;;;;;;;9.60;5.30;;;;;;;;;;5087955;28;20016;-74
2023/05/01 06:36:59;;;;;;;10.32;6.95;;;;;;;;;;5091546;28;20066;-75
2023/05/01 06:39:25;;;;;;;9.02;6.78;;;;;;;;;;5089202;28;20028;-74
2023/05/01 06:41:51;;;;;;;8.07;6.18;;;;;;;;;;5088700;28;20032;-75
2023/05/01 06:44:17;;;;;;;8.13;6.13;;;;;;;;;;5087337;28;20416;-74
2023/05/01 06:46:43;;;;;;;10.20;6.47;;;;;;;;;;5088795;28;20028;-74
2023/05/01 06:49:09;;;;;;;8.73;6.38;;;;;;;;;;5087382;28;20395;-74
2023/05/01 06:51:36;;;;;;;11.70;6.53;;;;;;;;;;5089753;28;20058;-74
2023/05/01 06:54:02;;;;;;;8.98;6.85;;;;;;;;;;5090837;28;20024;-74
2023/05/01 06:56:28;;;;;;;9.63;6.68;;;;;;;;;;5097186;28;20073;-74
2023/05/01 06:58:54;;;;;;;40.92;7.18;;;;;;;;;;5096723;28;20020;-75
2023/05/01 07:01:20;;;;;;;8.18;5.40;;;;;;;;;;5095222;28;20020;-74
2023/05/01 07:03:46;;;;;;;9.48;6.10;;;;;;;;;;5095629;28;20089;-74
2023/05/01 07:06:12;;;;;;;6.53;5.15;;;;;;;;;;5094027;28;20222;-74
2023/05/01 07:08:38;;;;;;;8.43;5.22;;;;;;;;;;5095904;28;20034;-74
2023/05/01 07:11:04;;;;;;;9.93;6.03;;;;;;;;;;5103204;28;20020;-74
2023/05/01 07:13:30;;;;;;;7.95;5.55;;;;;;;;;;5098191;28;20031;-74
2023/05/01 07:15:56;;;;;;;8.18;5.65;;;;;;;;;;5091216;28;20024;-74
2023/05/01 07:18:22;;;;;;;10.55;5.82;;;;;;;;;;5093760;28;20411;-75
2023/05/01 07:20:49;;;;;;;9.30;5.88;;;;;;;;;;5095502;28;20105;-74
2023/05/01 07:23:15;;;;;;;6.90;4.63;;;;;;;;;;5094803;28;20028;-74
2023/05/01 07:25:43;;;;;;;5.47;4.35;;;;;;;;;;5096424;28;20020;-76
2023/05/01 07:28:09;;;;;;;5.00;4.50;;;;;;;;;;5093817;28;20036;-75
2023/05/01 07:30:36;;;;;;;6.38;4.85;;;;;;;;;;5092789;28;20028;-75
2023/05/01 07:33:04;;;;;;;4.60;3.72;;;;;;;;;;5094371;28;20081;-75
2023/05/01 07:35:30;;;;;;;4.78;3.67;;;;;;;;;;5090954;28;20024;-75
2023/05/01 07:37:56;;;;;;;5.50;3.85;;;;;;;;;;5092107;28;20020;-75
2023/05/01 07:40:22;;;;;;;5.55;3.95;;;;;;;;;;5090796;28;20395;-75
2023/05/01 07:42:48;;;;;;;5.03;4.10;;;;;;;;;;5092468;28;20020;-74
2023/05/01 07:45:14;;;;;;;4.50;3.58;;;;;;;;;;5084975;28;20036;-73
2023/05/01 07:47:40;;;;;;;3.42;3.13;;;;;;;;;;5104710;28;20092;-74
2023/05/01 08:08:34;;;;;;;3.72;2.75;;;;;;;;;;5094171;28;20071;-74
2023/05/01 08:23:27;;;;;;;3.42;2.88;;;;;;;;;;5081355;28;20634;-75
2023/05/01 08:25:53;;;;;;;3.58;3.10;;;;;;;;;;5083316;28;20103;-75
2023/05/01 08:28:24;;;;;;;4.38;3.05;;;;;;;;;;5104665;28;20043;-75
2023/05/01 08:30:51;;;;;;;3.35;3.05;;;;;;;;;;5105514;28;20212;-75
2023/05/01 08:33:23;;;;;;;3.97;3.03;;;;;;;;;;5101019;28;20144;-78
2023/05/01 08:35:53;;;;;;;2.50;2.30;;;;;;;;;;5101846;28;20294;-76
2023/05/01 08:38:21;;;;;;;2.22;2.10;;;;;;;;;;5100744;28;20061;-76
2023/05/01 08:40:52;;;;;;;2.42;2.15;;;;;;;;;;5102124;28;20023;-74
2023/05/01 08:43:21;;;;;;;2.60;2.28;;;;;;;;;;5102560;28;20046;-76
2023/05/01 08:45:51;;;;;;;3.03;2.57;;;;;;;;;;5095572;28;20032;-75
2023/05/01 08:48:20;;;;;;;4.78;1.77;;;;;;;;;;5076031;28;20577;-77
2023/05/01 08:50:48;;;;;;;2.38;2.17;;;;;;;;;;5090316;28;20021;-77
2023/05/01 08:53:16;;;;;;;2.22;2.03;;;;;;;;;;5075235;28;20017;-76
2023/05/01 08:55:45;;;;;;;1.98;1.70;;;;;;;;;;5069985;28;20598;-77
2023/05/01 08:58:12;;;;;;;3.30;1.80;;;;;;;;;;5070718;28;20423;-75
2023/05/01 09:00:39;;;;;;;2.75;1.88;;;;;;;;;;5072010;28;20025;-76
2023/05/01 09:03:06;;;;;;;3.90;1.95;;;;;;;;;;5069832;28;20021;-77
2023/05/01 09:05:32;;;;;;;2.10;1.88;;;;;;;;;;5071389;28;20086;-76
2023/05/01 09:07:59;;;;;;;1.75;1.65;;;;;;;;;;5070314;28;20060;-76
2023/05/01 09:10:25;;;;;;;1.92;1.70;;;;;;;;;;5084590;28;20032;-76
2023/05/01 09:12:58;;;;;;;2.67;1.70;;;;;;;;;;5105444;28;20032;-75
2023/05/01 09:15:25;;;;;;;1.55;1.45;;;;;;;;;;5108214;28;20028;-76
2023/05/01 09:17:52;;;;;;;1.60;1.50;;;;;;;;;;5111149;28;20047;-77
2023/05/01 09:20:18;;;;;;;1.33;1.23;;;;;;;;;;5088692;28;20024;-76
2023/05/01 09:22:44;;;;;;;1.88;1.77;;;;;;;;;;5089554;28;20122;-76
2023/05/01 09:25:10;;;;;;;1.83;1.73;;;;;;;;;;5090337;28;20046;-75
2023/05/01 09:27:37;;;;;;;1.80;1.48;;;;;;;;;;5088448;28;20209;-75
2023/05/01 09:30:05;;;;;;;1.80;1.65;;;;;;;;;;5086646;28;20484;-77
2023/05/01 09:32:31;;;;;;;2.47;1.67;;;;;;;;;;5091022;28;20496;-75
2023/05/01 09:35:17;;;;;;;3.88;1.48;;;;;;;;;;5086599;28;20032;-78
2023/05/01 09:37:48;;;;;;;5.57;2.25;;;;;;;;;;5088970;28;20441;-76
2023/05/01 09:40:15;;;;;;;2.17;1.98;;;;;;;;;;5091009;28;20468;-78
2023/05/01 09:42:51;;;;;;;3.28;2.00;;;;;;;;;;5088415;28;20020;-76
2023/05/01 09:45:18;;;;;;;2.45;1.88;;;;;;;;;;5083998;28;20047;-78
2023/05/01 09:47:44;;;;;;;1.52;1.42;;;;;;;;;;5087246;28;20028;-78
2023/05/01 09:50:30;;;;;;;2.00;1.90;;;;;;;;;;5083318;28;20031;-77
2023/05/01 09:52:56;;;;;;;2.88;2.30;;;;;;;;;;5087720;28;20020;-79
2023/05/01 09:55:23;;;;;;;2.13;1.92;;;;;;;;;;5088046;28;20423;-76
2023/05/01 09:57:49;;;;;;;2.60;2.10;;;;;;;;;;5087702;28;20024;-77
2023/05/01 10:00:17;;;;;;;2.05;1.90;;;;;;;;;;5087796;28;20058;-79
2023/05/01 10:02:44;;;;;;;2.85;2.17;;;;;;;;;;5093726;28;20024;-78
2023/05/01 10:05:11;;;;;;;2.28;2.08;;;;;;;;;;5076438;28;20055;-75
2023/05/01 10:07:37;;;;;;;3.22;2.75;;;;;;;;;;5070587;28;20609;-78
2023/05/01 10:10:19;;;;;;;2.92;2.72;;;;;;;;;;5073632;28;20074;-77
2023/05/01 10:12:45;;;;;;;4.22;2.50;;;;;;;;;;5071180;28;20170;-77
2023/05/01 10:15:11;;;;;;;2.30;2.10;;;;;;;;;;5070957;28;20377;-76
2023/05/01 10:17:41;;;;;;;2.38;2.17;;;;;;;;;;5067721;28;20025;-77
2023/05/01 10:20:08;;;;;;;5.38;2.53;;;;;;;;;;5067214;28;20056;-76
2023/05/01 10:22:34;;;;;;;2.15;2.05;;;;;;;;;;5085617;28;20048;-75
2023/05/01 10:25:01;;;;;;;2.25;2.08;;;;;;;;;;5111181;28;20024;-76
2023/05/01 10:27:27;;;;;;;1.92;1.83;;;;;;;;;;5096166;28;20038;-76
2023/05/01 10:29:53;;;;;;;1.92;1.83;;;;;;;;;;5113321;28;20031;-75
2023/05/01 10:32:20;;;;;;;1.92;1.80;;;;;;;;;;5112604;28;20024;-77
2023/05/01 10:34:54;;;;;;;3.83;2.13;;;;;;;;;;5095680;28;20040;-76
2023/05/01 10:37:45;;;;;;;5.90;1.73;;;;;;;;;;5098166;28;20087;-75
2023/05/01 10:40:29;;;;;;;2.97;1.70;;;;;;;;;;5096327;28;20036;-75
2023/05/01 10:43:12;;;;;;;1.58;1.48;;;;;;;;;;5111757;28;20032;-75
2023/05/01 10:45:39;;;;;;;16.50;2.65;;;;;;;;;;5109178;28;20024;-75
2023/05/01 10:48:05;;;;;;;2.50;2.30;;;;;;;;;;5112412;28;20032;-75
2023/05/01 10:50:31;;;;;;;5.18;2.45;;;;;;;;;;5111356;28;20331;-76
2023/05/01 10:53:16;;;;;;;3.35;2.42;;;;;;;;;;5093134;28;20373;-75
2023/05/01 10:55:43;;;;;;;3.38;2.75;;;;;;;;;;5111963;28;20039;-75
2023/05/01 10:58:09;;;;;;;2.10;1.90;;;;;;;;;;5093168;28;20704;-76
2023/05/01 11:00:36;;;;;;;3.15;1.85;;;;;;;;;;5112370;28;20028;-75
2023/05/01 11:03:20;;;;;;;2.45;2.00;;;;;;;;;;5109192;28;20024;-75
2023/05/01 11:06:03;;;;;;;6.35;2.20;;;;;;;;;;5113850;28;20035;-76
2023/05/01 11:08:38;;;;;;;2.40;2.17;;;;;;;;;;5113730;28;20032;-75
2023/05/01 11:11:16;;;;;;;4.07;2.00;;;;;;;;;;5100966;28;20019;-76
2023/05/01 11:13:54;;;;;;;3.67;2.10;;;;;;;;;;5099903;28;20037;-75
2023/05/01 11:16:40;;;;;;;2.17;1.92;;;;;;;;;;5097145;28;20586;-76
2023/05/01 11:19:08;;;;;;;2.38;2.03;;;;;;;;;;5098748;28;20008;-76
2023/05/01 11:21:35;;;;;;;2.20;2.00;;;;;;;;;;5110655;28;20024;-75
2023/05/01 11:24:02;;;;;;;3.13;2.08;;;;;;;;;;5109447;28;20320;-75
2023/05/01 11:26:28;;;;;;;3.80;2.65;;;;;;;;;;5098122;28;20024;-76
2023/05/01 11:28:55;;;;;;;4.95;2.88;;;;;;;;;;5097232;28;20040;-75
2023/05/01 11:31:21;;;;;;;3.90;2.25;;;;;;;;;;5097937;28;20463;-76
2023/05/01 11:33:47;;;;;;;2.00;1.90;;;;;;;;;;5077004;28;20028;-76
2023/05/01 11:36:13;;;;;;;3.33;2.28;;;;;;;;;;5093521;28;20092;-74
2023/05/01 11:38:53;;;;;;;2.20;1.77;;;;;;;;;;5077867;28;20416;-75
2023/05/01 11:41:19;;;;;;;;;;;;;;;;;;5093307;28;20381;-75
2023/05/01 11:43:50;;;;;;;3.17;2.13;;;;;;;;;;5092825;28;20089;-76
2023/05/01 11:46:23;;;;;;;2.65;2.15;;;;;;;;;;5104827;28;20083;-77
2023/05/01 11:48:50;;;;;;;2.50;2.30;;;;;;;;;;5076275;28;20036;-76
2023/05/01 11:51:16;;;;;;;2.55;2.08;;;;;;;;;;5091457;28;20029;-76
2023/05/01 11:53:42;;;;;;;2.67;2.47;;;;;;;;;;5076169;28;20036;-77
2023/05/01 11:56:18;;;;;;;2.45;2.25;;;;;;;;;;5092080;28;20024;-76
2023/05/01 11:58:44;;;;;;;3.25;1.75;;;;;;;;;;5091922;28;20048;-75
2023/05/01 12:01:12;;;;;;;2.15;2.03;;;;;;;;;;5076807;28;20031;-76
2023/05/01 12:03:42;;;;;;;8.20;2.50;;;;;;;;;;5096121;28;20239;-76
2023/05/01 12:06:08;;;;;;;2.40;1.88;;;;;;;;;;5077672;28;20020;-76
2023/05/01 12:08:35;;;;;;;2.15;1.92;;;;;;;;;;5076442;28;20040;-76
2023/05/01 12:11:01;;;;;;;2.53;2.08;;;;;;;;;;5078151;28;20032;-77
2023/05/01 12:13:27;;;;;;;2.38;2.17;;;;;;;;;;5077937;28;20139;-76
2023/05/01 12:15:54;;;;;;;2.92;2.05;;;;;;;;;;5076217;28;20016;-75
2023/05/01 12:18:20;;;;;;;3.03;2.33;;;;;;;;;;5113856;28;20034;-77
2023/05/01 12:20:49;;;;;;;1.83;1.70;;;;;;;;;;5090668;28;20142;-76
2023/05/01 12:23:15;;;;;;;2.30;2.00;;;;;;;;;;5076867;28;20048;-75
2023/05/01 12:25:42;;;;;;;2.45;1.95;;;;;;;;;;5073629;28;20032;-75
2023/05/01 12:28:09;;;;;;;1.33;1.23;;;;;;;;;;5073741;28;20373;-76
2023/05/01 12:30:35;;;;;;;1.50;1.40;;;;;;;;;;5074311;28;20036;-78
2023/05/01 12:33:08;;;;;;;1.80;1.70;;;;;;;;;;5086610;28;20019;-77
2023/05/01 12:35:35;;;;;;;1.73;1.60;;;;;;;;;;5119273;28;20331;-76
2023/05/01 12:38:10;;;;;;;4.05;1.70;;;;;;;;;;5094850;28;20055;-74
2023/05/01 12:40:36;;;;;;;1.80;1.67;;;;;;;;;;5094976;28;20120;-77
2023/05/01 12:43:02;;;;;;;2.15;1.30;;;;;;;;;;5093592;28;20078;-75
2023/05/01 12:45:28;;;;;;;1.73;1.63;;;;;;;;;;5096921;28;20032;-76
2023/05/01 12:47:54;;;;;;;1.35;1.27;;;;;;;;;;5093682;28;20046;-77
2023/05/01 12:50:20;;;;;;;4.03;1.63;;;;;;;;;;5097686;28;20073;-75
2023/05/01 12:52:47;;;;;;;2.63;1.85;;;;;;;;;;5096083;28;20247;-74
2023/05/01 12:55:13;;;;;;;4.80;1.92;;;;;;;;;;5096758;28;20028;-75
2023/05/01 12:57:52;;;;;;;2.58;1.85;;;;;;;;;;5093175;28;20032;-75
2023/05/01 13:00:18;;;;;;;1.85;1.48;;;;;;;;;;5096448;28;20051;-74
2023/05/01 13:02:44;;;;;;;1.52;1.40;;;;;;;;;;5096654;28;20036;-74
2023/05/01 13:05:11;;;;;;;2.22;2.00;;;;;;;;;;5099757;28;20057;-77
2023/05/01 13:07:41;;;;;;;2.72;1.85;;;;;;;;;;5101311;28;20043;-75
2023/05/01 13:10:07;;;;;;;1.60;1.42;;;;;;;;;;5085650;28;20097;-76
2023/05/01 13:12:42;;;;;;;3.60;1.55;;;;;;;;;;5078013;28;20024;-73
2023/05/01 13:15:18;;;;;;;2.38;1.98;;;;;;;;;;5095239;28;20369;-75
2023/05/01 13:17:44;;;;;;;1.50;1.40;;;;;;;;;;5080741;28;20067;-75
2023/05/01 13:20:11;;;;;;;2.22;1.70;;;;;;;;;;5095990;28;20047;-74
2023/05/01 13:22:38;;;;;;;1.38;1.15;;;;;;;;;;5081625;28;20044;-73
2023/05/01 13:25:13;;;;;;;1.05;1.05;;;;;;;;;;5083386;28;20016;-73
2023/05/01 13:27:40;;;;;;;1.80;1.20;;;;;;;;;;5082856;28;20044;-76
2023/05/01 13:30:06;;;;;;;2.85;1.60;;;;;;;;;;5098051;28;20025;-73
2023/05/01 13:32:32;;;;;;;2.03;1.50;;;;;;;;;;5083322;28;20028;-74
2023/05/01 13:35:02;;;;;;;1.40;1.30;;;;;;;;;;5101410;28;20036;-72
2023/05/01 13:37:28;;;;;;;;;;;;;;;;;;5105837;28;20038;-74
2023/05/01 13:40:00;;;;;;;2.22;1.50;;;;;;;;;;5104688;28;19935;-75
2023/05/01 13:42:25;;;;;;;1.65;1.50;;;;;;;;;;5103960;28;20020;-74
2023/05/01 13:44:53;;;;;;;1.67;1.58;;;;;;;;;;5102035;28;20028;-75
2023/05/01 13:47:19;;;;;;;1.90;1.80;;;;;;;;;;5104600;28;20044;-75
2023/05/01 13:49:45;;;;;;;2.15;1.58;;;;;;;;;;5102560;28;20381;-75
2023/05/01 13:52:11;;;;;;;1.88;1.70;;;;;;;;;;5104669;28;20024;-75
2023/05/01 13:54:40;;;;;;;2.45;2.00;;;;;;;;;;5102995;28;20036;-74
2023/05/01 13:57:07;;;;;;;1.88;1.65;;;;;;;;;;5104424;28;20028;-75
2023/05/01 13:59:42;;;;;;;2.13;1.67;;;;;;;;;;5104745;28;20087;-74
2023/05/01 14:02:19;;;;;;;2.90;2.70;;;;;;;;;;5104569;28;20046;-75
2023/05/01 14:04:45;;;;;;;2.83;2.25;;;;;;;;;;5103741;28;20028;-74
2023/05/01 14:07:15;;;;;;;2.90;2.60;;;;;;;;;;5105477;28;20043;-75
2023/05/01 14:09:43;;;;;;;3.40;2.05;;;;;;;;;;5104293;28;20110;-74
2023/05/01 14:12:09;;;;;;;2.25;1.90;;;;;;;;;;5104897;28;20351;-75
2023/05/01 14:14:36;;;;;;;6.45;2.22;;;;;;;;;;5102239;28;20024;-75
2023/05/01 14:17:02;;;;;;;4.78;2.03;;;;;;;;;;5102785;28;20032;-75
2023/05/01 14:19:28;;;;;;;2.38;1.85;;;;;;;;;;5101495;28;20576;-75
2023/05/01 14:21:54;;;;;;;3.28;2.53;;;;;;;;;;5102272;28;20040;-75
2023/05/01 14:24:20;;;;;;;3.47;2.25;;;;;;;;;;5102065;28;20365;-75
2023/05/01 14:26:48;;;;;;;3.08;2.78;;;;;;;;;;5105254;28;20028;-76
2023/05/01 14:29:21;;;;;;;2.25;2.10;;;;;;;;;;5102945;28;20044;-75
2023/05/01 14:31:48;;;;;;;2.70;1.83;;;;;;;;;;5101653;28;20474;-77
2023/05/01 14:34:16;;;;;;;2.80;2.10;;;;;;;;;;5104331;28;20028;-75
2023/05/01 14:36:42;;;;;;;3.90;1.85;;;;;;;;;;5103515;28;20316;-75
2023/05/01 14:39:08;;;;;;;1.75;1.65;;;;;;;;;;5100528;28;20059;-75
2023/05/01 14:41:38;;;;;;;4.30;1.73;;;;;;;;;;5103442;28;20039;-74
2023/05/01 14:44:05;;;;;;;2.47;2.28;;;;;;;;;;5101504;28;20057;-75
2023/05/01 14:46:31;;;;;;;1.98;1.70;;;;;;;;;;5101941;28;20107;-74
2023/05/01 14:48:58;;;;;;;2.20;1.75;;;;;;;;;;5101686;28;20044;-77
2023/05/01 14:51:24;;;;;;;1.98;1.80;;;;;;;;;;5099389;28;20028;-75
2023/05/01 14:53:51;;;;;;;1.73;1.63;;;;;;;;;;5100749;28;20049;-75
2023/05/01 14:56:17;;;;;;;2.20;1.95;;;;;;;;;;5100177;28;20027;-75
2023/05/01 14:58:43;;;;;;;1.52;1.42;;;;;;;;;;5099479;28;20102;-76
2023/05/01 15:01:09;;;;;;;1.77;1.67;;;;;;;;;;5097906;28;20334;-74
2023/05/01 15:03:39;;;;;;;2.38;1.73;;;;;;;;;;5097535;28;20031;-76
2023/05/01 15:06:05;;;;;;;2.00;1.83;;;;;;;;;;5099680;28;20087;-75
2023/05/01 15:08:32;;;;;;;4.07;1.52;;;;;;;;;;5100708;28;20028;-76
2023/05/01 15:10:58;;;;;;;1.75;1.60;;;;;;;;;;5101727;28;20027;-76
2023/05/01 15:13:24;;;;;;;2.53;2.00;;;;;;;;;;5101692;28;20437;-75
2023/05/01 15:15:51;;;;;;;3.30;2.38;;;;;;;;;;5103634;28;20085;-74
2023/05/01 15:18:17;;;;;;;2.15;1.90;;;;;;;;;;5104334;28;20039;-73